createdAt,value
2023-05-19T00:01:37.806Z,11.70
2023-05-19T00:04:05.467Z,10.80
2023-05-19T00:06:33.603Z,10.90
2023-05-19T00:09:12.218Z,10.90
2023-05-19T00:11:40.508Z,12.00
2023-05-19T00:14:10.081Z,11.50
2023-05-19T00:16:42.479Z,11.00
2023-05-19T00:19:10.753Z,11.50
2023-05-19T00:21:40.834Z,11.50
2023-05-19T00:24:08.197Z,11.80
2023-05-19T00:26:35.444Z,11.70
2023-05-19T00:29:05.510Z,11.80
2023-05-19T00:31:34.389Z,12.80
2023-05-19T00:34:01.853Z,10.60
2023-05-19T00:36:29.095Z,10.60
2023-05-19T00:38:56.761Z,9.70
2023-05-19T00:41:23.999Z,9.70
2023-05-19T00:43:51.239Z,9.10
2023-05-19T00:46:19.638Z,9.90
2023-05-19T00:48:47.178Z,8.70
2023-05-19T00:51:17.253Z,9.00
2023-05-19T00:53:49.398Z,9.00
2023-05-19T00:56:17.782Z,9.00
2023-05-19T00:58:45.766Z,8.80
2023-05-19T01:01:14.810Z,8.70
2023-05-19T01:03:43.280Z,7.90
2023-05-19T01:06:12.382Z,8.30
2023-05-19T01:08:39.628Z,9.10
2023-05-19T01:11:08.262Z,8.90
2023-05-19T01:13:36.707Z,8.80
2023-05-19T01:16:33.472Z,8.80
2023-05-19T01:19:49.861Z,8.50
2023-05-19T01:22:48.399Z,8.90
2023-05-19T01:25:52.433Z,7.40
2023-05-19T01:28:34.827Z,8.60
2023-05-19T01:31:04.459Z,8.20
2023-05-19T01:33:34.137Z,8.50
2023-05-19T01:36:03.861Z,9.20
2023-05-19T01:38:32.874Z,8.70
2023-05-19T01:41:01.636Z,8.80
2023-05-19T01:43:29.755Z,9.30
2023-05-19T01:45:59.107Z,8.00
2023-05-19T01:48:27.903Z,9.30
2023-05-19T01:50:57.545Z,8.50
2023-05-19T01:53:25.418Z,8.50
2023-05-19T01:55:55.955Z,8.60
2023-05-19T01:58:58.481Z,8.60
2023-05-19T02:01:49.423Z,8.30
2023-05-19T02:04:40.227Z,7.70
2023-05-19T02:07:23.419Z,7.60
2023-05-19T02:09:50.542Z,7.70
2023-05-19T02:12:33.050Z,8.20
2023-05-19T02:15:08.172Z,7.60
2023-05-19T02:17:38.604Z,7.50
2023-05-19T02:20:07.021Z,8.10
2023-05-19T02:22:34.180Z,9.20
2023-05-19T02:25:01.489Z,7.20
2023-05-19T02:27:28.566Z,8.50
2023-05-19T02:29:55.927Z,8.40
2023-05-19T02:32:23.181Z,9.40
2023-05-19T02:34:50.270Z,8.90
2023-05-19T02:37:17.940Z,10.20
2023-05-19T02:39:45.299Z,9.70
2023-05-19T02:42:14.889Z,10.00
2023-05-19T02:44:41.987Z,10.70
2023-05-19T02:47:09.190Z,10.70
2023-05-19T02:49:36.402Z,11.90
2023-05-19T02:52:05.070Z,10.00
2023-05-19T02:54:34.245Z,9.90
2023-05-19T02:57:01.570Z,9.40
2023-05-19T02:59:29.010Z,10.60
2023-05-19T03:02:02.069Z,10.80
2023-05-19T03:04:30.339Z,9.60
2023-05-19T03:07:00.300Z,10.70
2023-05-19T03:09:27.408Z,10.20
2023-05-19T03:11:54.540Z,10.20
2023-05-19T03:14:24.293Z,10.00
2023-05-19T03:16:51.767Z,10.40
2023-05-19T03:19:19.004Z,10.80
2023-05-19T03:21:46.534Z,11.00
2023-05-19T03:24:14.049Z,9.90
2023-05-19T03:26:42.424Z,10.10
2023-05-19T03:29:09.750Z,10.60
2023-05-19T03:31:37.475Z,10.40
2023-05-19T03:34:05.070Z,10.30
2023-05-19T03:36:32.340Z,10.10
2023-05-19T03:39:00.159Z,9.60
2023-05-19T03:41:27.666Z,8.30
2023-05-19T03:43:56.054Z,8.50
2023-05-19T03:46:23.236Z,8.70
2023-05-19T03:49:15.253Z,8.50
2023-05-19T03:52:03.510Z,7.40
2023-05-19T03:54:47.097Z,8.20
2023-05-19T03:57:15.010Z,8.20
2023-05-19T03:59:42.193Z,7.70
2023-05-19T04:02:09.373Z,7.00
2023-05-19T04:04:38.166Z,7.00
2023-05-19T04:07:05.452Z,7.00
2023-05-19T04:09:35.428Z,6.70
2023-05-19T04:12:05.425Z,6.20
2023-05-19T04:14:32.508Z,6.90
2023-05-19T04:17:00.243Z,7.60
2023-05-19T04:19:27.526Z,5.70
2023-05-19T04:21:55.597Z,6.00
2023-05-19T04:24:22.801Z,6.60
2023-05-19T04:26:50.159Z,6.40
2023-05-19T04:29:18.510Z,6.50
2023-05-19T04:31:45.955Z,7.00
2023-05-19T04:34:13.199Z,6.40
2023-05-19T04:36:40.594Z,5.50
2023-05-19T04:39:10.247Z,5.60
2023-05-19T04:41:40.637Z,5.70
2023-05-19T04:44:09.368Z,6.30
2023-05-19T04:46:36.990Z,6.40
2023-05-19T04:49:05.571Z,6.80
2023-05-19T04:51:32.824Z,6.60
2023-05-19T04:54:01.718Z,7.60
2023-05-19T04:56:29.079Z,6.40
2023-05-19T04:58:56.410Z,6.40
2023-05-19T05:01:26.474Z,6.50
2023-05-19T05:03:59.279Z,7.20
2023-05-19T05:06:28.777Z,7.60
2023-05-19T05:08:57.058Z,7.30
2023-05-19T05:11:25.945Z,8.60
2023-05-19T05:13:53.800Z,8.50
2023-05-19T05:16:21.325Z,7.80
2023-05-19T05:18:49.334Z,7.30
2023-05-19T05:21:16.900Z,8.30
2023-05-19T05:23:44.274Z,7.70
2023-05-19T05:26:18.763Z,7.60
2023-05-19T05:28:47.288Z,7.90
2023-05-19T05:31:14.824Z,7.70
2023-05-19T05:33:42.805Z,7.00
2023-05-19T05:36:10.295Z,7.70
2023-05-19T05:38:37.431Z,7.90
2023-05-19T05:41:04.841Z,8.80
2023-05-19T05:43:32.693Z,8.70
2023-05-19T05:46:01.365Z,8.80
2023-05-19T05:48:29.535Z,9.90
2023-05-19T05:50:58.042Z,9.60
2023-05-19T05:53:31.105Z,8.90
2023-05-19T05:55:59.318Z,7.80
2023-05-19T05:58:29.052Z,8.80
2023-05-19T06:00:57.975Z,10.00
2023-05-19T06:03:25.728Z,8.00
2023-05-19T06:05:53.891Z,7.90
2023-05-19T06:08:21.232Z,8.50
2023-05-19T06:10:48.344Z,8.80
2023-05-19T06:13:21.526Z,9.70
2023-05-19T06:15:48.696Z,9.80
2023-05-19T06:18:30.344Z,10.90
2023-05-19T06:20:57.870Z,10.90
2023-05-19T06:23:27.038Z,10.10
2023-05-19T06:25:54.296Z,10.60
2023-05-19T06:28:21.376Z,10.80
2023-05-19T06:30:49.907Z,10.40
2023-05-19T06:33:43.100Z,10.20
2023-05-19T06:36:10.964Z,10.20
2023-05-19T06:38:39.149Z,10.40
2023-05-19T06:41:07.149Z,10.20
2023-05-19T06:43:34.571Z,10.00
2023-05-19T06:46:04.830Z,9.30
2023-05-19T06:48:33.696Z,9.40
2023-05-19T06:51:00.826Z,10.00
2023-05-19T06:53:28.106Z,9.00
2023-05-19T06:55:59.797Z,10.30
2023-05-19T07:00:56.185Z,10.20
2023-05-19T07:03:24.793Z,9.30
2023-05-19T07:05:52.006Z,8.90
2023-05-19T07:08:19.230Z,9.60
2023-05-19T07:10:46.343Z,10.70
2023-05-19T07:13:14.134Z,11.50
2023-05-19T07:15:41.391Z,11.30
2023-05-19T07:18:08.512Z,11.60
2023-05-19T07:20:36.177Z,11.60
2023-05-19T07:23:05.444Z,12.70
2023-05-19T07:25:33.801Z,12.00
2023-05-19T07:28:00.972Z,13.00
2023-05-19T07:30:29.064Z,12.70
2023-05-19T07:32:56.511Z,11.90
2023-05-19T07:35:23.830Z,14.20
2023-05-19T07:37:52.709Z,13.10
2023-05-19T07:40:19.867Z,13.60
2023-05-19T07:42:47.019Z,15.00
2023-05-19T07:45:14.140Z,13.40
2023-05-19T07:47:41.302Z,15.80
2023-05-19T07:50:08.646Z,15.80
2023-05-19T07:52:35.763Z,15.40
2023-05-19T07:55:03.163Z,14.20
2023-05-19T07:57:30.245Z,15.10
2023-05-19T07:59:57.343Z,14.20
2023-05-19T08:02:24.600Z,14.30
2023-05-19T08:04:54.946Z,14.40
2023-05-19T08:07:22.217Z,14.00
2023-05-19T08:09:49.366Z,14.30
2023-05-19T08:12:16.590Z,13.30
2023-05-19T08:14:43.729Z,14.10
2023-05-19T08:17:10.906Z,13.80
2023-05-19T08:19:37.968Z,14.10
2023-05-19T08:22:05.226Z,12.90
2023-05-19T08:24:34.007Z,14.90
2023-05-19T08:27:01.110Z,13.70
2023-05-19T08:29:28.313Z,14.30
2023-05-19T08:31:58.712Z,14.60
2023-05-19T08:34:27.805Z,13.40
2023-05-19T08:36:57.973Z,16.20
2023-05-19T08:39:33.296Z,14.30
2023-05-19T08:42:01.612Z,15.50
2023-05-19T08:44:28.869Z,14.60
2023-05-19T08:46:59.413Z,16.10
2023-05-19T08:49:31.358Z,14.90
2023-05-19T09:09:04.464Z,14.70
2023-05-19T09:11:33.657Z,14.20
2023-05-19T09:14:02.066Z,14.20
2023-05-19T09:16:30.162Z,14.00
2023-05-19T09:18:58.469Z,14.80
2023-05-19T09:21:32.475Z,13.10
2023-05-19T09:24:06.339Z,13.70
2023-05-19T09:26:41.125Z,14.50
2023-05-19T09:29:16.624Z,14.30
2023-05-19T09:31:56.213Z,12.30
2023-05-19T09:34:25.257Z,13.20
2023-05-19T09:36:53.758Z,12.60
2023-05-19T09:39:23.255Z,10.80
2023-05-19T09:41:55.447Z,10.80
2023-05-19T09:44:23.973Z,8.50
2023-05-19T09:46:51.871Z,8.80
2023-05-19T09:49:23.254Z,9.40
2023-05-19T09:51:53.817Z,9.60
2023-05-19T09:54:23.325Z,8.20
2023-05-19T09:57:03.964Z,7.70
2023-05-19T09:59:33.669Z,8.10
2023-05-19T10:02:02.685Z,7.90
2023-05-19T10:04:31.166Z,7.60
2023-05-19T10:07:00.151Z,7.50
2023-05-19T10:09:29.513Z,8.50
2023-05-19T10:11:58.347Z,6.50
2023-05-19T10:14:27.688Z,6.20
2023-05-19T10:16:56.628Z,6.40
2023-05-19T10:19:26.088Z,6.20
2023-05-19T10:21:53.884Z,6.50
2023-05-19T10:24:21.678Z,6.30
2023-05-19T10:27:01.757Z,6.60
2023-05-19T10:29:33.778Z,6.00
2023-05-19T10:32:21.319Z,5.80
2023-05-19T10:35:16.952Z,6.80
2023-05-19T10:37:51.568Z,6.90
2023-05-19T10:40:29.503Z,6.80
2023-05-19T10:43:15.752Z,6.50
2023-05-19T10:45:53.718Z,7.50
2023-05-19T10:48:23.404Z,5.30
2023-05-19T10:50:57.425Z,7.20
2023-05-19T10:53:31.785Z,6.30
2023-05-19T10:56:08.906Z,5.90
2023-05-19T10:58:46.701Z,6.30
2023-05-19T11:01:19.175Z,5.60
2023-05-19T11:06:40.922Z,6.60
2023-05-19T11:09:19.535Z,6.20
2023-05-19T11:11:48.894Z,5.40
2023-05-19T11:14:21.766Z,5.70
2023-05-19T11:16:56.903Z,5.70
2023-05-19T11:19:35.659Z,5.90
2023-05-19T11:22:14.481Z,5.40
2023-05-19T11:24:52.216Z,5.40
2023-05-19T11:27:19.370Z,4.80
2023-05-19T11:29:52.525Z,5.40
2023-05-19T11:32:26.563Z,5.40
2023-05-19T11:34:56.084Z,5.10
2023-05-19T11:37:24.078Z,5.70
2023-05-19T11:39:53.183Z,5.50
2023-05-19T11:42:20.795Z,6.10
2023-05-19T11:44:48.186Z,5.00
2023-05-19T11:47:19.325Z,5.10
2023-05-19T11:49:52.291Z,5.70
2023-05-19T11:52:22.415Z,5.40
2023-05-19T11:54:49.884Z,6.00
2023-05-19T11:57:17.516Z,5.70
2023-05-19T11:59:45.955Z,4.90
2023-05-19T12:02:14.191Z,5.20
2023-05-19T12:04:41.700Z,4.90
2023-05-19T12:07:09.044Z,4.70
2023-05-19T12:09:37.222Z,5.30
2023-05-19T12:12:04.936Z,4.90
2023-05-19T12:14:32.202Z,5.30
2023-05-19T12:16:59.631Z,5.60
2023-05-19T12:19:27.327Z,5.70
2023-05-19T12:21:55.289Z,4.70
2023-05-19T12:24:22.736Z,4.90
2023-05-19T12:26:50.570Z,4.40
2023-05-19T12:29:17.702Z,4.70
2023-05-19T12:31:47.477Z,5.90
2023-05-19T12:34:14.752Z,6.20
2023-05-19T12:36:42.031Z,5.60
2023-05-19T12:39:09.731Z,5.00
2023-05-19T12:41:37.888Z,6.10
2023-05-19T12:44:16.919Z,5.60
2023-05-19T12:46:44.698Z,5.50
2023-05-19T12:49:12.691Z,5.40
2023-05-19T12:51:40.654Z,4.50
2023-05-19T12:54:08.085Z,5.40
2023-05-19T12:56:35.251Z,4.60
2023-05-19T12:59:02.403Z,5.60
2023-05-19T13:01:29.859Z,4.70
2023-05-19T13:03:57.447Z,4.80
2023-05-19T13:06:24.792Z,4.30
2023-05-19T13:08:51.938Z,4.60
2023-05-19T13:11:19.442Z,5.40
2023-05-19T13:13:47.620Z,5.30
2023-05-19T13:16:14.779Z,5.80
2023-05-19T13:18:42.005Z,5.60
2023-05-19T13:21:09.345Z,5.50
2023-05-19T13:23:36.973Z,5.20
2023-05-19T13:26:05.222Z,4.50
2023-05-19T13:28:32.425Z,5.50
2023-05-19T13:30:59.752Z,5.80
2023-05-19T13:33:26.840Z,6.00
2023-05-19T13:35:55.374Z,5.00
2023-05-19T13:38:22.642Z,5.20
2023-05-19T13:40:49.829Z,5.40
2023-05-19T13:43:17.029Z,5.40
2023-05-19T13:45:44.760Z,5.00
2023-05-19T13:48:12.444Z,4.70
2023-05-19T13:50:39.661Z,5.40
2023-05-19T13:53:06.956Z,6.30
2023-05-19T13:55:34.207Z,6.60
2023-05-19T13:58:01.355Z,5.10
2023-05-19T14:00:28.647Z,5.20
2023-05-19T14:02:56.168Z,5.40
2023-05-19T14:05:23.408Z,5.70
2023-05-19T14:07:50.904Z,6.50
2023-05-19T14:10:20.538Z,6.20
2023-05-19T14:13:14.154Z,5.00
2023-05-19T14:15:38.065Z,5.40
2023-05-19T14:18:06.669Z,5.00
2023-05-19T14:20:34.925Z,3.90
2023-05-19T14:23:02.324Z,4.90
2023-05-19T14:25:29.452Z,4.70
2023-05-19T14:27:56.564Z,5.10
2023-05-19T14:30:23.871Z,5.50
2023-05-19T14:32:50.982Z,5.20
2023-05-19T14:35:18.605Z,6.00
2023-05-19T14:37:45.684Z,5.10
2023-05-19T14:40:13.388Z,4.80
2023-05-19T14:42:41.611Z,5.10
2023-05-19T14:45:09.356Z,4.10
2023-05-19T14:47:36.533Z,5.30
2023-05-19T14:50:03.834Z,4.30
2023-05-19T14:52:30.905Z,4.70
2023-05-19T14:54:58.741Z,5.20
2023-05-19T14:57:25.870Z,4.70
2023-05-19T14:59:52.988Z,4.60
2023-05-19T15:02:20.167Z,3.70
2023-05-19T15:04:47.291Z,4.40
2023-05-19T15:07:14.812Z,4.70
2023-05-19T15:09:41.935Z,5.10
2023-05-19T15:12:09.007Z,4.40
2023-05-19T15:14:36.098Z,4.20
2023-05-19T15:17:03.225Z,4.70
2023-05-19T15:19:30.581Z,5.00
2023-05-19T15:21:57.756Z,5.40
2023-05-19T15:24:25.209Z,4.90
2023-05-19T15:26:52.571Z,6.50
2023-05-19T15:29:19.667Z,5.70
2023-05-19T15:31:50.361Z,5.00
2023-05-19T15:34:18.618Z,5.30
2023-05-19T15:36:45.833Z,5.30
2023-05-19T15:39:13.172Z,4.40
2023-05-19T15:41:40.297Z,5.70
2023-05-19T15:44:07.388Z,5.90
2023-05-19T15:46:34.656Z,5.90
2023-05-19T15:49:01.888Z,5.00
2023-05-19T15:51:29.171Z,5.50
2023-05-19T15:53:56.276Z,5.60
2023-05-19T15:56:23.349Z,6.10
2023-05-19T15:58:51.135Z,5.20
2023-05-19T16:01:18.883Z,5.20
2023-05-19T16:03:46.236Z,4.90
2023-05-19T16:06:13.815Z,5.80
2023-05-19T16:08:40.990Z,6.20
2023-05-19T16:11:08.127Z,6.00
2023-05-19T16:13:35.375Z,6.30
2023-05-19T16:16:03.113Z,5.20
2023-05-19T16:18:30.428Z,6.50
2023-05-19T16:20:57.702Z,6.60
2023-05-19T16:23:25.163Z,6.20
2023-05-19T16:25:53.206Z,6.50
2023-05-19T16:28:22.339Z,6.40
2023-05-19T16:30:50.559Z,6.60
2023-05-19T16:33:17.815Z,6.70
2023-05-19T16:35:44.962Z,6.60
2023-05-19T16:38:12.120Z,8.00
2023-05-19T16:40:39.379Z,9.50
2023-05-19T16:43:06.506Z,10.20
2023-05-19T16:45:33.776Z,12.40
2023-05-19T16:48:01.025Z,12.30
2023-05-19T16:50:28.070Z,9.50
2023-05-19T16:52:55.225Z,9.40
2023-05-19T16:55:22.947Z,8.90
2023-05-19T16:57:50.102Z,8.30
2023-05-19T17:00:17.443Z,7.40
2023-05-19T17:02:44.637Z,8.30
2023-05-19T17:05:11.759Z,6.90
2023-05-19T17:07:38.857Z,7.70
2023-05-19T17:10:06.277Z,7.40
2023-05-19T17:12:33.426Z,7.10
2023-05-19T17:15:00.588Z,7.50
2023-05-19T17:17:27.728Z,7.80
2023-05-19T17:19:54.829Z,7.20
2023-05-19T17:22:21.951Z,7.70
2023-05-19T17:24:49.043Z,7.10
2023-05-19T17:27:16.339Z,9.00
2023-05-19T17:29:43.532Z,8.60
2023-05-19T17:32:10.707Z,9.20
2023-05-19T17:34:38.584Z,8.90
2023-05-19T17:37:06.133Z,9.90
2023-05-19T17:39:33.238Z,8.80
2023-05-19T17:42:00.371Z,9.20
2023-05-19T17:44:27.440Z,8.80
2023-05-19T17:46:54.793Z,9.40
2023-05-19T17:49:23.254Z,12.30
2023-05-19T17:51:50.643Z,12.20
2023-05-19T17:54:18.023Z,11.90
2023-05-19T17:56:45.770Z,11.10
2023-05-19T17:59:13.081Z,11.80
2023-05-19T18:01:41.070Z,11.40
2023-05-19T18:04:08.827Z,10.30
2023-05-19T18:06:40.854Z,10.00
2023-05-19T18:09:09.326Z,8.90
2023-05-19T18:11:36.678Z,10.40
2023-05-19T18:14:03.847Z,22.60
2023-05-19T18:16:31.017Z,11.30
2023-05-19T18:18:58.413Z,11.10
2023-05-19T18:21:27.034Z,10.50
2023-05-19T18:23:54.140Z,10.30
2023-05-19T18:26:21.727Z,10.00
2023-05-19T18:28:48.909Z,10.50
2023-05-19T18:31:19.731Z,11.00
2023-05-19T18:33:47.356Z,12.00
2023-05-19T18:36:16.776Z,12.00
2023-05-19T18:38:43.943Z,12.50
2023-05-19T18:41:11.194Z,12.00
2023-05-19T18:43:39.094Z,10.50
2023-05-19T18:46:06.461Z,11.60
2023-05-19T18:48:33.725Z,11.80
2023-05-19T18:51:01.434Z,11.00
2023-05-19T18:53:28.517Z,10.20
2023-05-19T18:55:55.716Z,10.70
2023-05-19T18:58:22.840Z,11.70
2023-05-19T19:00:50.719Z,10.40
2023-05-19T19:03:18.118Z,11.00
2023-05-19T19:05:45.290Z,10.20
2023-05-19T19:08:12.526Z,11.80
2023-05-19T19:10:40.925Z,11.00
2023-05-19T19:13:08.134Z,10.80
2023-05-19T19:15:35.295Z,10.50
2023-05-19T19:18:02.526Z,10.40
2023-05-19T19:20:29.648Z,9.70
2023-05-19T19:22:58.873Z,11.40
2023-05-19T19:25:26.017Z,9.90
2023-05-19T19:27:54.168Z,10.00
2023-05-19T19:30:21.485Z,9.00
2023-05-19T19:32:48.707Z,10.10
2023-05-19T19:35:16.200Z,9.70
2023-05-19T19:37:43.411Z,9.10
2023-05-19T19:40:11.164Z,11.00
2023-05-19T19:42:38.864Z,11.00
2023-05-19T19:45:08.830Z,10.80
2023-05-19T19:47:36.072Z,10.50
2023-05-19T19:50:05.950Z,8.50
2023-05-19T19:52:33.109Z,10.30
2023-05-19T19:55:00.351Z,8.40
2023-05-19T19:57:29.285Z,9.00
2023-05-19T19:59:59.357Z,9.40
2023-05-19T20:02:26.763Z,9.30
2023-05-19T20:04:53.984Z,9.00
2023-05-19T20:07:23.421Z,8.80
2023-05-19T20:09:51.890Z,8.90
2023-05-19T20:12:19.028Z,9.10
2023-05-19T20:14:46.829Z,8.50
2023-05-19T20:17:14.189Z,8.80
2023-05-19T20:19:41.292Z,8.10
2023-05-19T20:22:08.721Z,8.50
2023-05-19T20:24:35.876Z,8.10
2023-05-19T20:27:02.986Z,8.70
2023-05-19T20:29:30.169Z,9.00
2023-05-19T20:31:57.486Z,9.60
2023-05-19T20:34:24.760Z,7.00
2023-05-19T20:36:51.895Z,8.20
2023-05-19T20:39:19.193Z,8.50
2023-05-19T20:41:46.375Z,8.40
2023-05-19T20:44:13.531Z,10.80
2023-05-19T20:46:40.763Z,10.80
2023-05-19T20:49:07.896Z,10.10
2023-05-19T20:51:35.055Z,10.20
2023-05-19T20:54:02.217Z,9.40
2023-05-19T20:56:29.354Z,9.20
2023-05-19T20:58:56.501Z,7.80
2023-05-19T21:01:25.614Z,7.50
2023-05-19T21:03:52.823Z,9.10
2023-05-19T21:06:19.909Z,8.20
2023-05-19T21:08:47.021Z,9.60
2023-05-19T21:11:14.172Z,9.30
2023-05-19T21:13:41.380Z,9.00
2023-05-19T21:16:08.638Z,9.60
2023-05-19T21:18:35.897Z,8.20
2023-05-19T21:21:04.432Z,9.30
2023-05-19T21:23:31.661Z,9.10
2023-05-19T21:26:00.367Z,10.50
2023-05-19T21:28:27.493Z,10.20
2023-05-19T21:30:54.772Z,10.40
2023-05-19T21:33:21.956Z,10.50
2023-05-19T21:35:49.139Z,9.70
2023-05-19T21:40:49.794Z,12.70
2023-05-19T21:43:16.924Z,12.10
2023-05-19T21:45:43.989Z,10.50
2023-05-19T21:48:11.712Z,10.50
2023-05-19T21:50:39.111Z,8.40
2023-05-19T21:53:06.308Z,9.40
2023-05-19T21:55:33.550Z,9.40
2023-05-19T21:58:02.532Z,9.20
2023-05-19T22:00:30.262Z,10.10
2023-05-19T22:02:58.213Z,10.20
2023-05-19T22:05:25.414Z,10.40
2023-05-19T22:07:52.582Z,10.50
2023-05-19T22:10:19.874Z,9.80
2023-05-19T22:12:47.160Z,9.90
2023-05-19T22:15:14.711Z,10.30
2023-05-19T22:17:42.823Z,10.10
2023-05-19T22:20:10.555Z,10.20
2023-05-19T22:22:37.704Z,9.90
2023-05-19T22:25:05.495Z,11.20
2023-05-19T22:27:32.776Z,10.50
2023-05-19T22:29:59.961Z,9.80
2023-05-19T22:32:27.340Z,10.10
2023-05-19T22:34:54.571Z,11.90
2023-05-19T22:37:24.369Z,12.30
2023-05-19T22:39:51.912Z,11.30
2023-05-19T22:42:19.165Z,11.20
2023-05-19T22:44:46.365Z,11.00
2023-05-19T22:47:14.058Z,9.60
2023-05-19T22:49:42.687Z,9.80
2023-05-19T22:52:11.426Z,11.30
2023-05-19T22:54:38.820Z,11.10
2023-05-19T22:57:06.718Z,12.30
2023-05-19T22:59:35.589Z,12.90
2023-05-19T23:02:02.793Z,11.50
2023-05-19T23:04:30.090Z,10.80
2023-05-19T23:06:57.348Z,12.00
2023-05-19T23:09:24.582Z,10.40
2023-05-19T23:11:51.751Z,11.50
2023-05-19T23:14:19.053Z,12.00
2023-05-19T23:16:46.396Z,10.70
2023-05-19T23:19:13.631Z,11.30
2023-05-19T23:21:41.523Z,11.40
2023-05-19T23:24:08.704Z,12.20
2023-05-19T23:26:35.890Z,11.20
2023-05-19T23:29:02.989Z,12.20
2023-05-19T23:31:30.155Z,11.10
2023-05-19T23:33:57.760Z,12.10
2023-05-19T23:36:25.097Z,11.90
2023-05-19T23:38:52.256Z,10.60
2023-05-19T23:41:19.338Z,11.20
2023-05-19T23:43:46.753Z,11.00
2023-05-19T23:46:14.062Z,11.00
2023-05-19T23:48:41.231Z,11.00
2023-05-19T23:51:08.427Z,10.20
2023-05-19T23:53:35.757Z,11.90
2023-05-19T23:56:02.931Z,10.20
2023-05-19T23:58:30.017Z,11.40
